createdAt,value
2023-04-17T00:00:10.733Z,34.85
2023-04-17T00:01:10.819Z,34.84
2023-04-17T00:02:10.878Z,34.85
2023-04-17T00:03:10.905Z,34.85
2023-04-17T00:04:11.406Z,34.86
2023-04-17T00:05:10.945Z,34.85
2023-04-17T00:06:10.955Z,34.85
2023-04-17T00:07:10.959Z,34.85
2023-04-17T00:08:10.965Z,34.86
2023-04-17T00:09:11.152Z,34.86
2023-04-17T00:10:10.987Z,34.85
2023-04-17T00:11:11.017Z,34.87
2023-04-17T00:12:11.043Z,34.86
2023-04-17T00:13:11.030Z,34.87
2023-04-17T00:14:11.108Z,34.86
2023-04-17T00:15:11.085Z,34.87
2023-04-17T00:16:11.109Z,34.86
2023-04-17T00:17:11.099Z,34.88
2023-04-17T00:18:11.078Z,34.85
2023-04-17T00:19:11.296Z,34.85
2023-04-17T00:20:11.160Z,34.84
2023-04-17T00:21:11.107Z,34.87
2023-04-17T00:22:11.106Z,34.87
2023-04-17T00:23:11.117Z,34.87
2023-04-17T00:24:11.097Z,34.86
2023-04-17T00:25:11.137Z,34.87
2023-04-17T00:26:11.081Z,34.86
2023-04-17T00:27:11.120Z,34.87
2023-04-17T00:28:11.102Z,34.88
2023-04-17T00:29:11.290Z,34.87
2023-04-17T00:30:11.160Z,34.88
2023-04-17T00:31:11.123Z,34.85
2023-04-17T00:32:11.203Z,34.86
2023-04-17T00:33:11.123Z,34.87
2023-04-17T00:34:11.142Z,34.85
2023-04-17T00:35:11.133Z,34.90
2023-04-17T00:36:11.135Z,34.88
2023-04-17T00:37:11.183Z,34.88
2023-04-17T00:38:11.176Z,34.86
2023-04-17T00:39:11.390Z,34.87
2023-04-17T00:40:11.151Z,34.88
2023-04-17T00:41:11.186Z,34.88
2023-04-17T00:42:11.160Z,34.86
2023-04-17T00:43:11.145Z,34.90
2023-04-17T00:44:11.148Z,34.89
2023-04-17T00:45:11.161Z,34.89
2023-04-17T00:46:11.188Z,34.87
2023-04-17T00:47:11.118Z,34.87
2023-04-17T00:48:11.261Z,34.88
2023-04-17T00:49:11.386Z,34.88
2023-04-17T00:50:11.273Z,34.89
2023-04-17T00:51:11.216Z,34.92
2023-04-17T00:52:11.200Z,34.91
2023-04-17T00:53:11.228Z,34.90
2023-04-17T00:54:11.202Z,34.90
2023-04-17T00:55:11.198Z,34.89
2023-04-17T00:56:11.203Z,34.89
2023-04-17T00:57:11.194Z,34.88
2023-04-17T00:58:11.202Z,34.88
2023-04-17T00:59:11.363Z,34.90
2023-04-17T01:00:11.224Z,34.91
2023-04-17T01:01:11.268Z,34.88
2023-04-17T01:02:11.257Z,34.91
2023-04-17T01:03:11.384Z,34.90
2023-04-17T01:04:11.421Z,34.90
2023-04-17T01:05:11.221Z,34.91
2023-04-17T01:06:11.214Z,34.91
2023-04-17T01:07:11.172Z,34.91
2023-04-17T01:08:11.195Z,34.90
2023-04-17T01:09:11.458Z,34.92
2023-04-17T01:10:11.177Z,34.91
2023-04-17T01:11:11.189Z,34.91
2023-04-17T01:12:11.190Z,34.92
2023-04-17T01:13:11.232Z,34.91
2023-04-17T01:14:11.209Z,34.91
2023-04-17T01:15:11.250Z,34.91
2023-04-17T01:16:11.238Z,34.93
2023-04-17T01:17:11.329Z,34.93
2023-04-17T01:18:11.269Z,34.92
2023-04-17T01:19:11.492Z,34.92
2023-04-17T01:20:11.244Z,34.91
2023-04-17T01:21:11.226Z,34.94
2023-04-17T01:22:11.340Z,34.91
2023-04-17T01:23:11.185Z,34.92
2023-04-17T01:24:11.248Z,34.91
2023-04-17T01:25:11.205Z,34.93
2023-04-17T01:26:11.179Z,34.94
2023-04-17T01:27:11.188Z,34.92
2023-04-17T01:28:11.186Z,34.93
2023-04-17T01:29:11.421Z,34.93
2023-04-17T01:30:11.216Z,34.93
2023-04-17T01:31:11.262Z,34.94
2023-04-17T01:32:11.246Z,34.93
2023-04-17T01:33:11.245Z,34.96
2023-04-17T01:34:11.245Z,34.91
2023-04-17T01:35:11.236Z,34.95
2023-04-17T01:36:11.261Z,34.96
2023-04-17T01:37:11.203Z,34.91
2023-04-17T01:38:11.185Z,34.91
2023-04-17T01:39:11.478Z,34.94
2023-04-17T01:40:11.215Z,34.95
2023-04-17T01:41:11.528Z,34.90
2023-04-17T01:42:11.204Z,34.91
2023-04-17T01:43:11.252Z,34.91
2023-04-17T01:44:11.245Z,34.92
2023-04-17T01:45:11.235Z,34.92
2023-04-17T01:46:11.376Z,34.93
2023-04-17T01:47:11.253Z,34.94
2023-04-17T01:48:11.273Z,34.97
2023-04-17T01:49:11.481Z,34.95
2023-04-17T01:50:11.332Z,34.96
2023-04-17T01:51:11.298Z,34.94
2023-04-17T01:52:11.303Z,34.93
2023-04-17T01:53:11.306Z,34.93
2023-04-17T01:54:11.317Z,34.96
2023-04-17T01:55:11.304Z,34.93
2023-04-17T01:56:11.324Z,34.95
2023-04-17T01:57:11.320Z,34.93
2023-04-17T01:58:11.338Z,34.93
2023-04-17T01:59:11.646Z,34.96
2023-04-17T02:00:11.302Z,34.95
2023-04-17T02:01:11.326Z,34.94
2023-04-17T02:02:11.448Z,34.95
2023-04-17T02:03:11.408Z,34.94
2023-04-17T02:04:11.421Z,34.93
2023-04-17T02:05:11.324Z,34.94
2023-04-17T02:06:11.372Z,34.94
2023-04-17T02:07:11.347Z,34.97
2023-04-17T02:08:11.329Z,34.96
2023-04-17T02:09:11.378Z,34.95
2023-04-17T02:10:11.368Z,34.93
2023-04-17T02:11:11.375Z,34.95
2023-04-17T02:12:11.372Z,34.95
2023-04-17T02:13:11.388Z,34.95
2023-04-17T02:14:11.379Z,34.95
2023-04-17T02:15:11.356Z,34.97
2023-04-17T02:16:11.390Z,34.93
2023-04-17T02:17:11.379Z,34.94
2023-04-17T02:18:11.344Z,34.93
2023-04-17T02:19:11.497Z,34.94
2023-04-17T02:20:11.369Z,34.94
2023-04-17T02:21:11.405Z,34.97
2023-04-17T02:22:11.401Z,34.94
2023-04-17T02:23:11.378Z,34.95
2023-04-17T02:24:11.393Z,34.93
2023-04-17T02:25:11.418Z,34.97
2023-04-17T02:26:11.421Z,34.93
2023-04-17T02:27:11.401Z,34.95
2023-04-17T02:28:11.421Z,34.92
2023-04-17T02:29:11.678Z,34.96
2023-04-17T02:30:11.409Z,34.96
2023-04-17T02:31:11.461Z,34.95
2023-04-17T02:32:11.480Z,34.97
2023-04-17T02:33:11.449Z,34.97
2023-04-17T02:34:11.459Z,34.99
2023-04-17T02:35:11.422Z,34.97
2023-04-17T02:36:11.442Z,34.95
2023-04-17T02:37:11.499Z,34.94
2023-04-17T02:38:11.490Z,34.96
2023-04-17T02:39:11.681Z,34.96
2023-04-17T02:40:11.488Z,34.96
2023-04-17T02:41:11.512Z,34.96
2023-04-17T02:42:11.463Z,34.94
2023-04-17T02:43:11.493Z,34.97
2023-04-17T02:44:11.554Z,34.95
2023-04-17T02:45:11.547Z,34.97
2023-04-17T02:46:11.614Z,34.98
2023-04-17T02:47:11.552Z,34.97
2023-04-17T02:48:11.558Z,34.95
2023-04-17T02:49:11.885Z,34.98
2023-04-17T02:50:11.526Z,34.97
2023-04-17T02:51:11.533Z,34.96
2023-04-17T02:52:11.565Z,34.97
2023-04-17T02:53:11.516Z,34.97
2023-04-17T02:54:11.531Z,34.96
2023-04-17T02:55:11.541Z,34.97
2023-04-17T02:56:11.541Z,34.97
2023-04-17T02:57:11.566Z,34.95
2023-04-17T02:58:11.566Z,34.97
2023-04-17T02:59:11.698Z,34.94
2023-04-17T03:00:11.559Z,34.96
2023-04-17T03:01:11.629Z,34.96
2023-04-17T03:02:11.637Z,34.96
2023-04-17T03:03:11.738Z,34.98
2023-04-17T03:04:11.621Z,34.97
2023-04-17T03:05:11.646Z,34.96
2023-04-17T03:06:11.630Z,34.98
2023-04-17T03:07:11.669Z,34.97
2023-04-17T03:08:11.646Z,34.97
2023-04-17T03:09:11.935Z,34.97
2023-04-17T03:10:11.679Z,34.97
2023-04-17T03:11:11.694Z,34.96
2023-04-17T03:12:11.739Z,34.96
2023-04-17T03:13:11.706Z,34.95
2023-04-17T03:14:11.743Z,34.94
2023-04-17T03:15:11.828Z,34.95
2023-04-17T03:16:11.846Z,34.96
2023-04-17T03:17:11.829Z,34.98
2023-04-17T03:18:11.835Z,34.96
2023-04-17T03:19:12.117Z,34.95
2023-04-17T03:20:11.838Z,34.95
2023-04-17T03:21:11.846Z,34.96
2023-04-17T03:22:13.394Z,34.96
2023-04-17T03:23:11.882Z,34.94
2023-04-17T03:24:11.856Z,34.98
2023-04-17T03:25:11.870Z,34.94
2023-04-17T03:26:11.869Z,34.95
2023-04-17T03:27:11.879Z,34.95
2023-04-17T03:28:11.942Z,34.98
2023-04-17T03:29:12.236Z,34.98
2023-04-17T03:30:11.981Z,34.97
2023-04-17T03:31:11.982Z,34.98
2023-04-17T03:32:12.083Z,34.98
2023-04-17T03:33:11.973Z,34.96
2023-04-17T03:34:11.999Z,34.96
2023-04-17T03:35:12.009Z,34.97
2023-04-17T03:36:12.088Z,34.97
2023-04-17T03:37:11.999Z,34.95
2023-04-17T03:38:12.034Z,34.96
2023-04-17T03:39:12.253Z,34.99
2023-04-17T03:40:12.074Z,34.97
2023-04-17T03:41:12.197Z,34.97
2023-04-17T03:42:12.212Z,34.99
2023-04-17T03:43:12.228Z,34.96
2023-04-17T03:44:12.265Z,34.95
2023-04-17T03:45:12.256Z,34.97
2023-04-17T03:46:12.296Z,35.00
2023-04-17T03:47:12.266Z,34.96
2023-04-17T03:48:12.277Z,34.97
2023-04-17T03:49:12.642Z,34.97
2023-04-17T03:50:12.295Z,34.96
2023-04-17T03:51:12.330Z,34.94
2023-04-17T03:52:12.382Z,34.97
2023-04-17T03:53:12.344Z,34.95
2023-04-17T03:54:12.380Z,34.97
2023-04-17T03:55:12.490Z,34.96
2023-04-17T03:56:12.447Z,34.93
2023-04-17T03:57:12.435Z,34.97
2023-04-17T03:58:12.456Z,34.96
2023-04-17T03:59:12.635Z,34.96
2023-04-17T04:00:12.535Z,34.97
2023-04-17T04:01:12.558Z,34.98
2023-04-17T04:02:12.651Z,34.95
2023-04-17T04:03:12.683Z,34.97
2023-04-17T04:04:12.688Z,34.97
2023-04-17T04:05:12.631Z,34.98
2023-04-17T04:06:12.635Z,34.99
2023-04-17T04:07:12.616Z,34.98
2023-04-17T04:08:12.630Z,34.96
2023-04-17T04:09:12.736Z,34.97
2023-04-17T04:10:13.566Z,34.98
2023-04-17T04:11:12.645Z,34.98
2023-04-17T04:12:12.671Z,34.99
2023-04-17T04:13:12.669Z,34.98
2023-04-17T04:14:12.701Z,34.97
2023-04-17T04:15:12.762Z,34.99
2023-04-17T04:16:12.913Z,35.00
2023-04-17T04:17:12.793Z,34.99
2023-04-17T04:18:12.795Z,34.99
2023-04-17T04:19:12.957Z,34.99
2023-04-17T04:20:12.830Z,35.00
2023-04-17T04:21:12.860Z,34.99
2023-04-17T04:22:12.878Z,34.99
2023-04-17T04:23:12.871Z,35.00
2023-04-17T04:24:12.875Z,34.98
2023-04-17T04:25:12.874Z,35.00
2023-04-17T04:26:12.904Z,35.00
2023-04-17T04:27:12.948Z,35.00
2023-04-17T04:28:12.936Z,34.99
2023-04-17T04:29:13.068Z,35.00
2023-04-17T04:30:12.974Z,34.99
2023-04-17T04:31:12.970Z,35.01
2023-04-17T04:32:12.921Z,35.02
2023-04-17T04:33:12.952Z,35.01
2023-04-17T04:34:12.992Z,35.03
2023-04-17T04:35:13.041Z,35.01
2023-04-17T04:36:13.049Z,35.00
2023-04-17T04:37:13.034Z,34.99
2023-04-17T04:38:13.032Z,35.00
2023-04-17T04:39:13.334Z,35.00
2023-04-17T04:40:13.078Z,34.99
2023-04-17T04:41:13.114Z,34.98
2023-04-17T04:42:13.095Z,35.01
2023-04-17T04:43:13.126Z,34.98
2023-04-17T04:44:13.126Z,35.00
2023-04-17T04:45:13.228Z,34.99
2023-04-17T04:46:13.196Z,34.98
2023-04-17T04:47:13.158Z,34.96
2023-04-17T04:48:13.163Z,34.98
2023-04-17T04:49:13.354Z,34.99
2023-04-17T04:50:13.222Z,35.00
2023-04-17T04:51:13.233Z,35.01
2023-04-17T04:52:13.270Z,35.16
2023-04-17T04:53:13.279Z,35.42
2023-04-17T04:54:13.296Z,35.47
2023-04-17T04:55:13.289Z,35.49
2023-04-17T04:56:13.301Z,35.65
2023-04-17T04:57:13.334Z,35.71
2023-04-17T04:58:13.332Z,35.87
2023-04-17T04:59:13.460Z,35.95
2023-04-17T05:00:13.304Z,36.15
2023-04-17T05:01:13.749Z,36.34
2023-04-17T05:02:13.460Z,36.64
2023-04-17T05:03:13.567Z,36.90
2023-04-17T05:04:13.455Z,36.84
2023-04-17T05:05:13.380Z,36.99
2023-04-17T05:06:13.383Z,37.24
2023-04-17T05:07:13.411Z,37.12
2023-04-17T05:08:13.426Z,37.05
2023-04-17T05:09:15.483Z,36.99
2023-04-17T05:10:13.387Z,36.85
2023-04-17T05:11:13.374Z,36.76
2023-04-17T05:12:13.394Z,36.72
2023-04-17T05:13:13.364Z,36.83
2023-04-17T05:14:13.370Z,36.88
2023-04-17T05:15:13.361Z,36.99
2023-04-17T05:16:13.353Z,37.09
2023-04-17T05:17:13.331Z,37.45
2023-04-17T05:18:13.362Z,38.02
2023-04-17T05:19:13.604Z,37.90
2023-04-17T05:20:13.325Z,37.60
2023-04-17T05:21:13.359Z,37.67
2023-04-17T05:22:13.338Z,37.48
2023-04-17T05:23:13.318Z,37.86
2023-04-17T05:24:13.305Z,37.78
2023-04-17T05:25:13.285Z,38.17
2023-04-17T05:26:13.317Z,38.55
2023-04-17T05:27:13.295Z,39.09
2023-04-17T05:28:15.466Z,39.46
2023-04-17T05:29:13.535Z,39.52
2023-04-17T05:30:13.248Z,39.43
2023-04-17T05:31:13.315Z,40.27
2023-04-17T05:32:13.253Z,39.96
2023-04-17T05:33:13.238Z,40.58
2023-04-17T05:34:13.206Z,40.46
2023-04-17T05:35:13.222Z,41.09
2023-04-17T05:36:13.242Z,41.32
2023-04-17T05:37:13.227Z,43.10
2023-04-17T05:38:13.226Z,44.57
2023-04-17T05:39:13.441Z,44.28
2023-04-17T05:40:13.202Z,44.33
2023-04-17T05:41:13.614Z,44.39
2023-04-17T05:42:13.172Z,45.59
2023-04-17T05:43:13.187Z,45.52
2023-04-17T05:44:13.169Z,46.21
2023-04-17T05:45:13.191Z,46.78
2023-04-17T05:46:13.676Z,47.00
2023-04-17T05:47:13.162Z,47.75
2023-04-17T05:48:13.170Z,47.35
2023-04-17T05:49:13.296Z,47.33
2023-04-17T05:50:13.142Z,48.03
2023-04-17T05:51:13.599Z,47.79
2023-04-17T05:52:13.094Z,47.77
2023-04-17T05:53:13.103Z,48.08
2023-04-17T05:54:13.151Z,48.51
2023-04-17T05:55:13.097Z,48.29
2023-04-17T05:56:13.120Z,48.43
2023-04-17T05:57:13.085Z,49.44
2023-04-17T05:59:13.239Z,49.29
2023-04-17T06:00:13.210Z,49.04
2023-04-17T06:01:13.070Z,48.87
2023-04-17T06:02:13.084Z,48.56
2023-04-17T06:03:13.200Z,48.52
2023-04-17T06:04:13.395Z,48.19
2023-04-17T06:05:13.198Z,48.06
2023-04-17T06:06:13.020Z,48.07
2023-04-17T06:07:13.041Z,47.87
2023-04-17T06:08:13.024Z,47.71
2023-04-17T06:09:13.119Z,47.49
2023-04-17T06:10:12.986Z,47.42
2023-04-17T06:11:13.029Z,47.32
2023-04-17T06:12:12.988Z,47.43
2023-04-17T06:13:12.960Z,47.48
2023-04-17T06:14:13.000Z,47.20
2023-04-17T06:15:12.968Z,47.17
2023-04-17T06:16:12.956Z,47.30
2023-04-17T06:17:13.013Z,47.16
2023-04-17T06:18:12.946Z,47.15
2023-04-17T06:19:13.000Z,47.11
2023-04-17T06:20:12.936Z,47.12
2023-04-17T06:21:12.925Z,47.29
2023-04-17T06:22:12.958Z,47.31
2023-04-17T06:23:12.937Z,47.27
2023-04-17T06:24:12.908Z,47.23
2023-04-17T06:25:12.884Z,47.13
2023-04-17T06:26:12.896Z,47.06
2023-04-17T06:27:12.884Z,47.06
2023-04-17T06:28:12.884Z,47.09
2023-04-17T06:29:13.070Z,47.15
2023-04-17T06:30:12.847Z,47.16
2023-04-17T06:31:12.917Z,47.26
2023-04-17T06:32:13.042Z,47.28
2023-04-17T06:33:12.840Z,47.32
2023-04-17T06:34:12.861Z,47.18
2023-04-17T06:35:12.860Z,47.15
2023-04-17T06:36:12.830Z,47.24
2023-04-17T06:37:12.799Z,47.10
2023-04-17T06:38:12.807Z,47.17
2023-04-17T06:39:13.298Z,47.02
2023-04-17T06:40:12.797Z,47.19
2023-04-17T06:41:12.790Z,47.10
2023-04-17T06:42:13.114Z,46.99
2023-04-17T06:43:12.760Z,46.95
2023-04-17T06:44:12.782Z,47.32
2023-04-17T06:45:12.757Z,47.07
2023-04-17T06:46:12.796Z,47.04
2023-04-17T06:47:13.163Z,47.02
2023-04-17T06:48:12.736Z,46.89
2023-04-17T06:49:12.909Z,46.98
2023-04-17T06:50:12.732Z,46.69
2023-04-17T06:51:12.713Z,46.68
2023-04-17T06:52:13.170Z,46.52
2023-04-17T06:53:12.725Z,45.36
2023-04-17T06:54:12.694Z,46.34
2023-04-17T06:55:12.720Z,46.39
2023-04-17T06:56:12.668Z,46.33
2023-04-17T06:57:12.675Z,46.37
2023-04-17T06:58:12.702Z,46.53
2023-04-17T06:59:12.745Z,46.57
2023-04-17T07:00:12.663Z,46.56
2023-04-17T07:01:12.684Z,46.54
2023-04-17T07:02:12.748Z,46.78
2023-04-17T07:03:12.718Z,46.88
2023-04-17T07:04:12.853Z,46.59
2023-04-17T07:05:12.640Z,46.78
2023-04-17T07:06:12.595Z,46.80
2023-04-17T07:07:12.623Z,46.81
2023-04-17T07:08:12.589Z,46.98
2023-04-17T07:09:12.839Z,46.81
2023-04-17T07:10:12.681Z,46.83
2023-04-17T07:11:12.750Z,46.77
2023-04-17T07:12:12.813Z,46.86
2023-04-17T07:13:12.860Z,46.91
2023-04-17T07:14:13.184Z,46.89
2023-04-17T07:15:12.995Z,46.89
2023-04-17T07:16:13.072Z,46.99
2023-04-17T07:17:13.119Z,47.00
2023-04-17T07:18:13.167Z,46.91
2023-04-17T07:19:13.454Z,46.99
2023-04-17T07:20:13.365Z,46.94
2023-04-17T07:21:13.309Z,46.89
2023-04-17T07:22:13.407Z,46.83
2023-04-17T07:23:13.462Z,46.90
2023-04-17T07:24:13.512Z,46.92
2023-04-17T07:25:13.533Z,46.97
2023-04-17T07:26:13.597Z,47.10
2023-04-17T07:27:13.665Z,47.06
2023-04-17T07:28:13.701Z,47.15
2023-04-17T07:29:14.144Z,47.03
2023-04-17T07:30:13.763Z,47.20
2023-04-17T07:31:13.812Z,47.37
2023-04-17T07:32:13.878Z,47.21
2023-04-17T07:33:14.892Z,47.29
2023-04-17T07:34:13.849Z,47.31
2023-04-17T07:35:13.829Z,47.27
2023-04-17T07:36:13.833Z,47.22
2023-04-17T07:37:13.828Z,47.23
2023-04-17T07:38:13.816Z,47.14
2023-04-17T07:39:13.956Z,47.21
2023-04-17T07:40:13.812Z,47.31
2023-04-17T07:41:14.678Z,47.51
2023-04-17T07:42:14.146Z,47.08
2023-04-17T07:43:13.785Z,46.97
2023-04-17T07:44:13.785Z,46.86
2023-04-17T07:45:13.787Z,46.91
2023-04-17T07:46:13.925Z,46.80
2023-04-17T07:47:13.890Z,46.88
2023-04-17T07:48:13.968Z,46.80
2023-04-17T07:49:14.238Z,46.84
2023-04-17T07:50:13.934Z,46.84
2023-04-17T07:51:13.970Z,46.78
2023-04-17T07:52:14.003Z,46.77
2023-04-17T07:53:14.034Z,46.72
2023-04-17T07:54:14.064Z,46.68
2023-04-17T07:55:14.109Z,46.76
2023-04-17T07:56:14.153Z,46.78
2023-04-17T07:57:14.194Z,46.46
2023-04-17T07:58:14.232Z,46.44
2023-04-17T07:59:14.450Z,45.92
2023-04-17T08:00:14.391Z,45.33
2023-04-17T08:01:14.433Z,44.72
2023-04-17T08:02:14.518Z,44.04
2023-04-17T08:03:14.700Z,43.46
2023-04-17T08:04:14.775Z,42.66
2023-04-17T08:05:14.672Z,42.67
2023-04-17T08:06:14.615Z,41.99
2023-04-17T08:07:14.631Z,41.87
2023-04-17T08:08:14.609Z,41.48
2023-04-17T08:09:14.675Z,41.26
2023-04-17T08:10:14.599Z,41.38
2023-04-17T08:11:14.596Z,41.02
2023-04-17T08:12:14.624Z,41.39
2023-04-17T08:13:14.640Z,40.70
2023-04-17T08:14:14.635Z,40.69
2023-04-17T08:15:14.651Z,40.64
2023-04-17T08:16:14.726Z,40.21
2023-04-17T08:17:14.666Z,40.07
2023-04-17T08:18:14.692Z,39.98
2023-04-17T08:19:14.716Z,40.15
2023-04-17T08:20:14.688Z,40.11
2023-04-17T08:21:14.684Z,39.66
2023-04-17T08:22:14.728Z,39.65
2023-04-17T08:23:14.743Z,39.50
2023-04-17T08:24:15.441Z,39.49
2023-04-17T08:25:14.792Z,39.31
2023-04-17T08:26:14.782Z,39.11
2023-04-17T08:27:14.822Z,39.12
2023-04-17T08:28:14.840Z,38.83
2023-04-17T08:29:15.203Z,38.98
2023-04-17T08:30:18.060Z,38.69
2023-04-17T08:31:14.864Z,38.58
2023-04-17T08:32:15.585Z,38.46
2023-04-17T08:33:14.829Z,38.27
2023-04-17T08:34:15.688Z,38.28
2023-04-17T08:35:14.842Z,38.24
2023-04-17T08:36:14.812Z,38.76
2023-04-17T08:37:15.223Z,39.04
2023-04-17T08:38:14.876Z,40.85
2023-04-17T08:39:15.019Z,41.73
2023-04-17T08:40:14.968Z,42.15
2023-04-17T08:41:14.791Z,42.69
2023-04-17T08:42:18.579Z,42.66
2023-04-17T08:43:14.780Z,42.33
2023-04-17T08:44:14.797Z,42.60
2023-04-17T08:45:14.790Z,41.12
2023-04-17T08:46:14.802Z,41.49
2023-04-17T08:47:14.765Z,40.91
2023-04-17T08:48:14.729Z,41.62
2023-04-17T08:49:14.797Z,42.73
2023-04-17T08:50:14.796Z,43.65
2023-04-17T08:51:14.743Z,43.37
2023-04-17T08:52:15.186Z,43.51
2023-04-17T08:53:14.734Z,44.69
2023-04-17T08:54:14.733Z,45.20
2023-04-17T08:55:14.721Z,45.26
2023-04-17T08:56:14.707Z,45.11
2023-04-17T08:57:14.695Z,45.22
2023-04-17T08:58:14.737Z,45.15
2023-04-17T08:59:14.723Z,45.01
2023-04-17T09:00:14.683Z,44.80
2023-04-17T09:01:14.691Z,44.81
2023-04-17T09:02:14.804Z,44.81
2023-04-17T09:03:14.939Z,44.73
2023-04-17T09:04:14.884Z,44.88
2023-04-17T09:05:14.667Z,44.94
2023-04-17T09:06:14.635Z,44.96
2023-04-17T09:07:14.652Z,44.99
2023-04-17T09:08:14.664Z,45.04
2023-04-17T09:09:14.619Z,45.14
2023-04-17T09:10:14.607Z,45.26
2023-04-17T09:11:14.632Z,45.35
2023-04-17T09:12:14.645Z,45.40
2023-04-17T09:13:14.720Z,45.45
2023-04-17T09:14:14.630Z,45.45
2023-04-17T09:15:14.687Z,45.55
2023-04-17T09:16:14.737Z,45.66
2023-04-17T09:17:14.704Z,45.60
2023-04-17T09:18:14.752Z,45.61
2023-04-17T09:19:14.733Z,45.86
2023-04-17T09:20:14.769Z,45.98
2023-04-17T09:21:14.771Z,45.95
2023-04-17T09:22:14.794Z,46.09
2023-04-17T09:23:14.790Z,46.16
2023-04-17T09:24:14.821Z,46.24
2023-04-17T09:25:14.815Z,46.38
2023-04-17T09:26:14.881Z,46.36
2023-04-17T09:27:15.209Z,46.45
2023-04-17T09:28:14.862Z,46.44
2023-04-17T09:29:15.092Z,46.48
2023-04-17T09:30:14.936Z,46.42
2023-04-17T09:31:14.918Z,46.47
2023-04-17T09:32:14.908Z,46.46
2023-04-17T09:33:14.900Z,46.41
2023-04-17T09:34:14.893Z,46.47
2023-04-17T09:35:15.031Z,46.66
2023-04-17T09:36:14.954Z,46.58
2023-04-17T09:37:14.953Z,46.63
2023-04-17T09:38:15.230Z,46.69
2023-04-17T09:39:14.972Z,46.97
2023-04-17T09:40:15.078Z,47.09
2023-04-17T09:41:15.042Z,46.99
2023-04-17T09:42:15.096Z,46.49
2023-04-17T09:43:15.180Z,46.52
2023-04-17T09:44:15.228Z,46.13
2023-04-17T09:45:15.124Z,46.17
2023-04-17T09:46:15.238Z,46.05
2023-04-17T09:47:15.124Z,46.02
2023-04-17T09:48:15.221Z,46.30
2023-04-17T09:49:15.167Z,46.32
2023-04-17T09:50:15.162Z,46.43
2023-04-17T09:51:15.186Z,46.53
2023-04-17T09:52:15.195Z,46.59
2023-04-17T09:53:15.241Z,46.65
2023-04-17T09:54:15.404Z,46.63
2023-04-17T09:55:15.298Z,46.58
2023-04-17T09:56:15.279Z,46.69
2023-04-17T09:57:15.296Z,46.56
2023-04-17T09:58:15.348Z,46.62
2023-04-17T09:59:15.339Z,46.95
2023-04-17T10:00:15.363Z,46.71
2023-04-17T10:01:15.394Z,46.72
2023-04-17T10:02:15.523Z,46.83
2023-04-17T10:03:15.583Z,47.22
2023-04-17T10:04:15.661Z,47.09
2023-04-17T10:05:15.552Z,47.05
2023-04-17T10:06:15.571Z,47.03
2023-04-17T10:07:15.597Z,46.94
2023-04-17T10:08:15.590Z,46.92
2023-04-17T10:09:15.598Z,46.92
2023-04-17T10:10:15.593Z,46.99
2023-04-17T10:11:15.722Z,46.95
2023-04-17T10:12:15.828Z,47.25
2023-04-17T10:13:15.850Z,47.21
2023-04-17T10:14:15.810Z,47.20
2023-04-17T10:15:15.862Z,47.35
2023-04-17T10:16:15.871Z,47.08
2023-04-17T10:17:15.830Z,47.08
2023-04-17T10:18:16.244Z,47.23
2023-04-17T10:19:16.046Z,47.12
2023-04-17T10:20:16.073Z,47.07
2023-04-17T10:21:16.043Z,47.11
2023-04-17T10:22:16.068Z,47.40
2023-04-17T10:23:16.064Z,47.47
2023-04-17T10:24:16.073Z,47.55
2023-04-17T10:25:16.061Z,47.57
2023-04-17T10:26:16.122Z,47.90
2023-04-17T10:27:16.147Z,47.98
2023-04-17T10:28:16.149Z,48.19
2023-04-17T10:29:16.200Z,47.90
2023-04-17T10:30:16.301Z,47.86
2023-04-17T10:31:16.268Z,47.70
2023-04-17T10:32:16.435Z,47.51
2023-04-17T10:33:16.255Z,47.63
2023-04-17T10:34:16.260Z,47.52
2023-04-17T10:35:16.434Z,47.52
2023-04-17T10:36:16.288Z,47.84
2023-04-17T10:37:16.286Z,47.91
2023-04-17T10:38:16.711Z,48.13
2023-04-17T10:39:16.487Z,47.91
2023-04-17T10:40:16.476Z,47.95
2023-04-17T10:41:16.445Z,48.09
2023-04-17T10:42:16.481Z,47.71
2023-04-17T10:43:16.482Z,47.23
2023-04-17T10:44:16.458Z,47.22
2023-04-17T10:45:16.522Z,47.29
2023-04-17T10:46:16.562Z,47.33
2023-04-17T10:47:16.526Z,47.23
2023-04-17T10:48:16.584Z,47.17
2023-04-17T10:49:16.537Z,47.10
2023-04-17T10:50:16.554Z,47.18
2023-04-17T10:51:16.621Z,47.26
2023-04-17T10:52:16.592Z,47.20
2023-04-17T10:53:16.627Z,47.32
2023-04-17T10:54:16.601Z,47.11
2023-04-17T10:55:16.574Z,47.04
2023-04-17T10:56:16.594Z,46.98
2023-04-17T10:57:16.667Z,46.96
2023-04-17T10:58:16.760Z,46.93
2023-04-17T10:59:16.999Z,46.89
2023-04-17T11:00:16.770Z,46.66
2023-04-17T11:01:16.806Z,46.67
2023-04-17T11:02:16.877Z,46.55
2023-04-17T11:03:17.051Z,46.57
2023-04-17T11:04:16.899Z,46.37
2023-04-17T11:05:16.894Z,46.30
2023-04-17T11:06:16.891Z,46.30
2023-04-17T11:07:16.907Z,46.02
2023-04-17T11:08:16.931Z,46.06
2023-04-17T11:09:17.279Z,45.77
2023-04-17T11:10:16.913Z,45.89
2023-04-17T11:11:20.825Z,46.00
2023-04-17T11:12:17.924Z,46.00
2023-04-17T11:13:16.932Z,44.92
2023-04-17T11:14:16.875Z,45.48
2023-04-17T11:15:16.922Z,45.35
2023-04-17T11:16:16.880Z,45.30
2023-04-17T11:17:16.869Z,45.31
2023-04-17T11:18:16.899Z,45.20
2023-04-17T11:19:16.874Z,45.30
2023-04-17T11:20:16.868Z,45.17
2023-04-17T11:21:16.877Z,45.20
2023-04-17T11:22:16.867Z,45.08
2023-04-17T11:23:16.862Z,45.08
2023-04-17T11:24:16.844Z,45.19
2023-04-17T11:25:16.864Z,45.26
2023-04-17T11:26:16.838Z,45.32
2023-04-17T11:27:16.833Z,45.31
2023-04-17T11:28:16.838Z,45.23
2023-04-17T11:29:16.992Z,45.20
2023-04-17T11:30:16.813Z,44.93
2023-04-17T11:31:19.036Z,44.67
2023-04-17T11:32:16.802Z,44.79
2023-04-17T11:33:17.255Z,44.86
2023-04-17T11:34:16.786Z,44.68
2023-04-17T11:35:16.763Z,44.52
2023-04-17T11:36:16.765Z,44.28
2023-04-17T11:37:16.813Z,44.24
2023-04-17T11:38:16.721Z,44.30
2023-04-17T11:39:16.747Z,44.20
2023-04-17T11:40:16.706Z,44.33
2023-04-17T11:41:16.705Z,44.36
2023-04-17T11:42:16.710Z,44.15
2023-04-17T11:43:16.717Z,43.66
2023-04-17T11:44:16.774Z,43.86
2023-04-17T11:45:16.706Z,43.50
2023-04-17T11:46:16.721Z,43.58
2023-04-17T11:47:16.701Z,43.55
2023-04-17T11:48:16.734Z,42.80
2023-04-17T11:49:16.685Z,43.53
2023-04-17T11:50:16.696Z,44.03
2023-04-17T11:51:16.640Z,44.15
2023-04-17T11:52:18.050Z,43.92
2023-04-17T11:53:16.652Z,43.88
2023-04-17T11:54:16.652Z,43.94
2023-04-17T11:55:16.661Z,44.28
2023-04-17T11:56:16.629Z,43.92
2023-04-17T11:57:23.656Z,42.85
2023-04-17T11:58:16.608Z,43.13
2023-04-17T11:59:16.611Z,42.62
2023-04-17T12:00:16.617Z,43.40
2023-04-17T12:01:16.589Z,43.17
2023-04-17T12:02:16.719Z,42.97
2023-04-17T12:03:16.845Z,43.88
2023-04-17T12:04:17.087Z,43.75
2023-04-17T12:05:16.640Z,43.27
2023-04-17T12:06:16.546Z,41.70
2023-04-17T12:07:16.561Z,41.19
2023-04-17T12:08:16.610Z,42.10
2023-04-17T12:09:16.553Z,42.09
2023-04-17T12:10:16.547Z,43.42
2023-04-17T12:11:17.306Z,43.07
2023-04-17T12:12:16.560Z,43.21
2023-04-17T12:13:16.499Z,43.50
2023-04-17T12:14:16.488Z,43.77
2023-04-17T12:15:16.526Z,44.00
2023-04-17T12:16:16.597Z,43.73
2023-04-17T12:17:16.547Z,43.56
2023-04-17T12:18:16.489Z,43.67
2023-04-17T12:19:16.474Z,43.68
2023-04-17T12:20:16.490Z,42.72
2023-04-17T12:21:16.451Z,41.46
2023-04-17T12:22:16.473Z,41.90
2023-04-17T12:23:16.816Z,42.13
2023-04-17T12:24:16.438Z,42.09
2023-04-17T12:25:16.438Z,41.71
2023-04-17T12:26:16.452Z,41.04
2023-04-17T12:27:16.404Z,41.18
2023-04-17T12:28:16.425Z,40.62
2023-04-17T12:29:16.424Z,41.04
2023-04-17T12:30:16.484Z,41.04
2023-04-17T12:31:16.556Z,41.24
2023-04-17T12:32:16.620Z,41.22
2023-04-17T12:33:16.706Z,41.09
2023-04-17T12:34:16.738Z,41.15
2023-04-17T12:35:16.787Z,41.05
2023-04-17T12:36:16.943Z,40.82
2023-04-17T12:37:16.901Z,40.93
2023-04-17T12:38:16.935Z,40.62
2023-04-17T12:39:17.061Z,40.34
2023-04-17T12:40:17.060Z,40.09
2023-04-17T12:41:17.144Z,40.18
2023-04-17T12:42:17.220Z,40.05
2023-04-17T12:43:17.274Z,40.02
2023-04-17T12:44:17.277Z,39.83
2023-04-17T12:45:17.298Z,39.68
2023-04-17T12:46:17.342Z,39.66
2023-04-17T12:47:17.357Z,39.92
2023-04-17T12:48:17.346Z,39.43
2023-04-17T12:49:17.370Z,39.54
2023-04-17T12:50:17.326Z,39.36
2023-04-17T12:51:17.322Z,39.53
2023-04-17T12:52:17.338Z,39.43
2023-04-17T12:53:17.373Z,39.18